Rhourd El Adra — 7TBS — position and weather

sailwx.info

Track history (hours):
 
Tides and Currents Weather Stations Pressure Air Temp Water Temp Dewpoint Dewpoint Depression Visibility Wind Speed Wind Dir Waves Ship Positions

Rhourd El Adra

Last reported at 2014-Jul-31 04:34 UTC. Time now 2014-Jul-31 05:21 UTC.
Position N 38°26' E 000°43'.

Length 156 m; draft 6.9 m.

Type: Ship (hazmat cat C). MMSI: 605026210.

Date/timePositionNaut miles runAvg speedWind from/ knotsBaromVisibWave heightAir tempDewpointWater temp
2014-Jul-31 04:34N 38°26' E 000°43'1616.2
2014-Jul-31 03:33N 38°41' E 000°49'1616.3
2014-Jul-31 02:33N 38°57' E 000°55'1616.3
2014-Jul-31 01:34N 39°13' E 000°57'1716.7
2014-Jul-31 00:33N 39°29' E 000°59'1717.0
2014-Jul-30 23:33N 39°46' E 001°01'1717.2
2014-Jul-30 22:33N 40°03' E 001°03'1716.6
2014-Jul-30 21:34N 40°20' E 001°05'1716.5
2014-Jul-30 20:33N 40°36' E 001°07'1616.3
2014-Jul-30 19:34N 40°53' E 001°10'1312.7
2014-Jul-30 18:33N 41°05' E 001°13'1 0.7
2014-Jul-30 17:11N 41°06' E 001°13'0 0.0
2014-Jul-30 15:11N 41°06' E 001°13'0 0.0
2014-Jul-28 14:11N 41°06' E 001°13'3011.3
2014-Jul-28 11:33N 40°36' E 001°10'1515.2
2014-Jul-28 10:33N 40°22' E 001°06'1515.3
2014-Jul-28 09:33N 40°06' E 001°04'1614.9
2014-Jul-28 08:30N 39°51' E 001°02'2914.9
2014-Jul-28 06:33N 39°22' E 000°60'1515.2
2014-Jul-28 05:33N 39°07' E 000°57'1615.6
2014-Jul-28 04:33N 38°51' E 000°54'1615.6
2014-Jul-28 03:33N 38°36' E 000°50'1515.2
2014-Jul-28 02:33N 38°22' E 000°43'1615.6
2014-Jul-28 01:33N 38°07' E 000°36'1615.8
2014-Jul-28 00:33N 37°52' E 000°31'1815.5
2014-Jul-27 23:25N 37°35' E 000°24'1315.7
2014-Jul-27 22:33N 37°22' E 000°20'1514.9
2014-Jul-27 21:32N 37°07' E 000°15'1515.4
2014-Jul-27 20:34N 36°53' E 000°10'63 1.3
2014-Jul-25 21:06N 35°53' W 000°15'5 9.4
2014-Jul-25 20:33N 35°58' W 000°13'25114.8
2014-Jul-25 03:34N 35°57' W 005°23'  
2014-Jul-21 10:33N 36°01' W 005°21'  
Track history (hours):
 
Tides and Currents Weather Stations Pressure Air Temp Water Temp Dewpoint Dewpoint Depression Visibility Wind Speed Wind Dir Waves Ship Positions

Rhourd El Adra

Last reported at 2014-Jul-31 04:34 UTC. Time now 2014-Jul-31 05:21 UTC.
Position N 38°26' E 000°43'.

Length 156 m; draft 6.9 m.

Type: Ship (hazmat cat C). MMSI: 605026210.

Date/timePositionNaut miles runAvg speedWind from/ knotsBaromVisibWave heightAir tempDewpointWater temp
2014-Jul-31 04:34N 38°26' E 000°43'1616.2
2014-Jul-31 03:33N 38°41' E 000°49'1616.3
2014-Jul-31 02:33N 38°57' E 000°55'1616.3
2014-Jul-31 01:34N 39°13' E 000°57'1716.7
2014-Jul-31 00:33N 39°29' E 000°59'1717.0
2014-Jul-30 23:33N 39°46' E 001°01'1717.2
2014-Jul-30 22:33N 40°03' E 001°03'1716.6
2014-Jul-30 21:34N 40°20' E 001°05'1716.5
2014-Jul-30 20:33N 40°36' E 001°07'1616.3
2014-Jul-30 19:34N 40°53' E 001°10'1312.7
2014-Jul-30 18:33N 41°05' E 001°13'1 0.7
2014-Jul-30 17:11N 41°06' E 001°13'0 0.0
2014-Jul-30 15:11N 41°06' E 001°13'0 0.0
2014-Jul-28 14:11N 41°06' E 001°13'3011.3
2014-Jul-28 11:33N 40°36' E 001°10'1515.2
2014-Jul-28 10:33N 40°22' E 001°06'1515.3
2014-Jul-28 09:33N 40°06' E 001°04'1614.9
2014-Jul-28 08:30N 39°51' E 001°02'2914.9
2014-Jul-28 06:33N 39°22' E 000°60'1515.2
2014-Jul-28 05:33N 39°07' E 000°57'1615.6
2014-Jul-28 04:33N 38°51' E 000°54'1615.6
2014-Jul-28 03:33N 38°36' E 000°50'1515.2
2014-Jul-28 02:33N 38°22' E 000°43'1615.6
2014-Jul-28 01:33N 38°07' E 000°36'1615.8
2014-Jul-28 00:33N 37°52' E 000°31'1815.5
2014-Jul-27 23:25N 37°35' E 000°24'1315.7
2014-Jul-27 22:33N 37°22' E 000°20'1514.9
2014-Jul-27 21:32N 37°07' E 000°15'1515.4
2014-Jul-27 20:34N 36°53' E 000°10'63 1.3
2014-Jul-25 21:06N 35°53' W 000°15'5 9.4
2014-Jul-25 20:33N 35°58' W 000°13'25114.8
2014-Jul-25 03:34N 35°57' W 005°23'  
2014-Jul-21 10:33N 36°01' W 005°21'  

Dump ship's entire track history